sensor_id;sensor_type;location;lat;lon;timestamp;P1;durP1;ratioP1;P2;durP2;ratioP2
58362;SDS011;54977;51.510;7.522;2022-08-19T00:03:46;13.50;;;11.77;;
58362;SDS011;54977;51.510;7.522;2022-08-19T00:08:48;15.73;;;13.45;;
58362;SDS011;54977;51.510;7.522;2022-08-19T00:13:51;19.38;;;14.65;;
58362;SDS011;54977;51.510;7.522;2022-08-19T00:18:55;18.58;;;14.88;;
58362;SDS011;54977;51.510;7.522;2022-08-19T00:23:57;19.13;;;15.98;;
58362;SDS011;54977;51.510;7.522;2022-08-19T00:29:00;20.20;;;15.85;;
58362;SDS011;54977;51.510;7.522;2022-08-19T00:34:03;21.67;;;15.82;;
58362;SDS011;54977;51.510;7.522;2022-08-19T00:39:05;17.67;;;14.75;;
58362;SDS011;54977;51.510;7.522;2022-08-19T00:44:09;19.92;;;15.60;;
58362;SDS011;54977;51.510;7.522;2022-08-19T00:49:20;21.90;;;16.23;;
58362;SDS011;54977;51.510;7.522;2022-08-19T00:54:26;20.27;;;16.33;;
58362;SDS011;54977;51.510;7.522;2022-08-19T00:59:31;19.85;;;16.98;;
58362;SDS011;54977;51.510;7.522;2022-08-19T01:04:37;24.10;;;16.80;;
58362;SDS011;54977;51.510;7.522;2022-08-19T01:09:39;20.42;;;16.50;;
58362;SDS011;54977;51.510;7.522;2022-08-19T01:14:41;21.55;;;17.05;;
58362;SDS011;54977;51.510;7.522;2022-08-19T01:19:45;22.20;;;16.85;;
58362;SDS011;54977;51.510;7.522;2022-08-19T01:24:49;23.65;;;17.33;;
58362;SDS011;54977;51.510;7.522;2022-08-19T01:29:52;19.58;;;16.23;;
58362;SDS011;54977;51.510;7.522;2022-08-19T01:34:54;25.00;;;16.75;;
58362;SDS011;54977;51.510;7.522;2022-08-19T01:39:58;22.38;;;16.83;;
58362;SDS011;54977;51.510;7.522;2022-08-19T01:45:00;24.17;;;17.67;;
58362;SDS011;54977;51.510;7.522;2022-08-19T01:50:03;21.65;;;17.30;;
58362;SDS011;54977;51.510;7.522;2022-08-19T01:55:10;21.90;;;16.77;;
58362;SDS011;54977;51.510;7.522;2022-08-19T02:00:14;22.50;;;16.13;;
58362;SDS011;54977;51.510;7.522;2022-08-19T02:05:18;19.83;;;16.15;;
58362;SDS011;54977;51.510;7.522;2022-08-19T02:10:22;21.23;;;16.45;;
58362;SDS011;54977;51.510;7.522;2022-08-19T02:15:24;20.17;;;16.30;;
58362;SDS011;54977;51.510;7.522;2022-08-19T02:20:26;23.65;;;17.52;;
58362;SDS011;54977;51.510;7.522;2022-08-19T02:25:30;20.08;;;16.83;;
58362;SDS011;54977;51.510;7.522;2022-08-19T02:30:32;22.00;;;17.38;;
58362;SDS011;54977;51.510;7.522;2022-08-19T02:35:34;20.77;;;16.45;;
58362;SDS011;54977;51.510;7.522;2022-08-19T02:40:37;21.17;;;16.13;;
58362;SDS011;54977;51.510;7.522;2022-08-19T02:45:39;20.23;;;16.98;;
58362;SDS011;54977;51.510;7.522;2022-08-19T02:50:41;22.67;;;17.13;;
58362;SDS011;54977;51.510;7.522;2022-08-19T02:55:45;25.10;;;17.85;;
58362;SDS011;54977;51.510;7.522;2022-08-19T03:00:48;26.05;;;18.05;;
58362;SDS011;54977;51.510;7.522;2022-08-19T03:05:51;23.38;;;18.13;;
58362;SDS011;54977;51.510;7.522;2022-08-19T03:11:04;22.40;;;16.40;;
58362;SDS011;54977;51.510;7.522;2022-08-19T03:16:06;21.60;;;17.20;;
58362;SDS011;54977;51.510;7.522;2022-08-19T03:21:09;24.05;;;18.88;;
58362;SDS011;54977;51.510;7.522;2022-08-19T03:26:17;26.95;;;19.02;;
58362;SDS011;54977;51.510;7.522;2022-08-19T03:31:20;24.77;;;17.77;;
58362;SDS011;54977;51.510;7.522;2022-08-19T03:36:24;24.55;;;17.15;;
58362;SDS011;54977;51.510;7.522;2022-08-19T03:41:29;23.58;;;17.40;;
58362;SDS011;54977;51.510;7.522;2022-08-19T03:46:33;23.63;;;17.35;;
58362;SDS011;54977;51.510;7.522;2022-08-19T03:51:36;24.83;;;17.85;;
58362;SDS011;54977;51.510;7.522;2022-08-19T03:56:42;21.67;;;17.27;;
58362;SDS011;54977;51.510;7.522;2022-08-19T04:01:45;21.48;;;17.00;;
58362;SDS011;54977;51.510;7.522;2022-08-19T04:06:47;22.88;;;18.45;;
58362;SDS011;54977;51.510;7.522;2022-08-19T04:11:51;24.75;;;18.48;;
58362;SDS011;54977;51.510;7.522;2022-08-19T04:16:54;30.38;;;19.95;;
58362;SDS011;54977;51.510;7.522;2022-08-19T04:21:56;23.27;;;16.98;;
58362;SDS011;54977;51.510;7.522;2022-08-19T04:27:00;27.25;;;19.55;;
58362;SDS011;54977;51.510;7.522;2022-08-19T04:32:03;25.55;;;18.85;;
58362;SDS011;54977;51.510;7.522;2022-08-19T04:37:05;24.58;;;18.73;;
58362;SDS011;54977;51.510;7.522;2022-08-19T04:42:13;22.83;;;18.02;;
58362;SDS011;54977;51.510;7.522;2022-08-19T04:47:33;25.48;;;18.77;;
58362;SDS011;54977;51.510;7.522;2022-08-19T04:52:34;25.30;;;19.13;;
58362;SDS011;54977;51.510;7.522;2022-08-19T04:57:38;26.10;;;19.55;;
58362;SDS011;54977;51.510;7.522;2022-08-19T05:02:40;27.27;;;20.08;;
58362;SDS011;54977;51.510;7.522;2022-08-19T05:07:42;27.45;;;20.15;;
58362;SDS011;54977;51.510;7.522;2022-08-19T05:12:45;27.85;;;20.23;;
58362;SDS011;54977;51.510;7.522;2022-08-19T05:17:47;26.80;;;20.08;;
58362;SDS011;54977;51.510;7.522;2022-08-19T05:23:03;29.08;;;20.77;;
58362;SDS011;54977;51.510;7.522;2022-08-19T05:28:06;33.20;;;22.92;;
58362;SDS011;54977;51.510;7.522;2022-08-19T05:33:08;33.88;;;24.08;;
58362;SDS011;54977;51.510;7.522;2022-08-19T05:38:11;31.63;;;23.45;;
58362;SDS011;54977;51.510;7.522;2022-08-19T05:43:15;31.77;;;22.35;;
58362;SDS011;54977;51.510;7.522;2022-08-19T05:48:17;30.17;;;21.85;;
58362;SDS011;54977;51.510;7.522;2022-08-19T05:53:20;31.60;;;21.38;;
58362;SDS011;54977;51.510;7.522;2022-08-19T05:58:23;34.50;;;23.08;;
58362;SDS011;54977;51.510;7.522;2022-08-19T06:03:26;37.08;;;25.65;;
58362;SDS011;54977;51.510;7.522;2022-08-19T06:08:28;33.78;;;24.85;;
58362;SDS011;54977;51.510;7.522;2022-08-19T06:13:31;36.30;;;26.60;;
58362;SDS011;54977;51.510;7.522;2022-08-19T06:18:33;34.80;;;26.05;;
58362;SDS011;54977;51.510;7.522;2022-08-19T06:23:35;35.55;;;25.33;;
58362;SDS011;54977;51.510;7.522;2022-08-19T06:28:38;31.60;;;24.23;;
58362;SDS011;54977;51.510;7.522;2022-08-19T06:33:43;30.70;;;23.45;;
58362;SDS011;54977;51.510;7.522;2022-08-19T06:38:45;32.10;;;23.23;;
58362;SDS011;54977;51.510;7.522;2022-08-19T06:43:49;30.38;;;22.58;;
58362;SDS011;54977;51.510;7.522;2022-08-19T06:48:51;27.75;;;20.55;;
58362;SDS011;54977;51.510;7.522;2022-08-19T06:53:54;28.65;;;20.27;;
58362;SDS011;54977;51.510;7.522;2022-08-19T06:58:58;27.60;;;19.63;;
58362;SDS011;54977;51.510;7.522;2022-08-19T07:04:00;24.33;;;19.20;;
58362;SDS011;54977;51.510;7.522;2022-08-19T07:09:02;27.83;;;20.95;;
58362;SDS011;54977;51.510;7.522;2022-08-19T07:14:07;29.15;;;19.48;;
58362;SDS011;54977;51.510;7.522;2022-08-19T07:19:09;25.23;;;19.02;;
58362;SDS011;54977;51.510;7.522;2022-08-19T07:24:10;23.30;;;18.52;;
58362;SDS011;54977;51.510;7.522;2022-08-19T07:29:14;25.73;;;18.95;;
58362;SDS011;54977;51.510;7.522;2022-08-19T07:34:16;22.42;;;17.67;;
58362;SDS011;54977;51.510;7.522;2022-08-19T07:39:21;24.20;;;17.33;;
58362;SDS011;54977;51.510;7.522;2022-08-19T07:44:25;23.85;;;17.88;;
58362;SDS011;54977;51.510;7.522;2022-08-19T07:49:28;26.00;;;17.17;;
58362;SDS011;54977;51.510;7.522;2022-08-19T07:54:30;25.17;;;17.08;;
58362;SDS011;54977;51.510;7.522;2022-08-19T07:59:36;22.33;;;17.50;;
58362;SDS011;54977;51.510;7.522;2022-08-19T08:04:38;22.00;;;17.48;;
58362;SDS011;54977;51.510;7.522;2022-08-19T08:09:58;21.70;;;16.83;;
58362;SDS011;54977;51.510;7.522;2022-08-19T08:15:04;19.40;;;16.88;;
58362;SDS011;54977;51.510;7.522;2022-08-19T08:20:09;20.00;;;15.73;;
58362;SDS011;54977;51.510;7.522;2022-08-19T08:25:12;19.38;;;16.00;;
58362;SDS011;54977;51.510;7.522;2022-08-19T08:30:18;18.10;;;14.93;;
58362;SDS011;54977;51.510;7.522;2022-08-19T08:35:22;20.77;;;15.10;;
58362;SDS011;54977;51.510;7.522;2022-08-19T08:40:28;19.92;;;13.95;;
58362;SDS011;54977;51.510;7.522;2022-08-19T08:45:33;20.90;;;15.07;;
58362;SDS011;54977;51.510;7.522;2022-08-19T08:50:41;21.10;;;15.77;;
58362;SDS011;54977;51.510;7.522;2022-08-19T08:55:46;17.27;;;12.45;;
58362;SDS011;54977;51.510;7.522;2022-08-19T09:00:50;18.92;;;13.63;;
58362;SDS011;54977;51.510;7.522;2022-08-19T09:05:55;15.40;;;11.57;;
58362;SDS011;54977;51.510;7.522;2022-08-19T09:11:03;17.95;;;11.88;;
58362;SDS011;54977;51.510;7.522;2022-08-19T09:16:11;14.98;;;11.40;;
58362;SDS011;54977;51.510;7.522;2022-08-19T09:21:17;12.20;;;10.82;;
58362;SDS011;54977;51.510;7.522;2022-08-19T09:26:20;15.15;;;11.02;;
58362;SDS011;54977;51.510;7.522;2022-08-19T09:31:26;11.48;;;10.02;;
58362;SDS011;54977;51.510;7.522;2022-08-19T09:36:29;13.88;;;11.02;;
58362;SDS011;54977;51.510;7.522;2022-08-19T09:41:33;15.55;;;12.35;;
58362;SDS011;54977;51.510;7.522;2022-08-19T09:46:36;21.40;;;16.42;;
58362;SDS011;54977;51.510;7.522;2022-08-19T09:51:38;17.95;;;13.70;;
58362;SDS011;54977;51.510;7.522;2022-08-19T09:56:40;14.77;;;12.20;;
58362;SDS011;54977;51.510;7.522;2022-08-19T10:01:44;14.93;;;13.07;;
58362;SDS011;54977;51.510;7.522;2022-08-19T10:06:46;14.52;;;12.95;;
58362;SDS011;54977;51.510;7.522;2022-08-19T10:11:49;15.70;;;13.55;;
58362;SDS011;54977;51.510;7.522;2022-08-19T10:16:53;11.70;;;9.60;;
58362;SDS011;54977;51.510;7.522;2022-08-19T10:21:55;15.50;;;13.68;;
58362;SDS011;54977;51.510;7.522;2022-08-19T10:26:57;17.27;;;12.80;;
58362;SDS011;54977;51.510;7.522;2022-08-19T10:32:01;13.85;;;12.40;;
58362;SDS011;54977;51.510;7.522;2022-08-19T10:37:05;11.80;;;10.18;;
58362;SDS011;54977;51.510;7.522;2022-08-19T10:42:08;9.65;;;8.30;;
58362;SDS011;54977;51.510;7.522;2022-08-19T10:47:12;10.57;;;9.48;;
58362;SDS011;54977;51.510;7.522;2022-08-19T10:52:14;9.35;;;7.53;;
58362;SDS011;54977;51.510;7.522;2022-08-19T10:57:34;12.68;;;9.50;;
58362;SDS011;54977;51.510;7.522;2022-08-19T11:02:38;12.40;;;10.82;;
58362;SDS011;54977;51.510;7.522;2022-08-19T11:07:40;12.32;;;11.00;;
58362;SDS011;54977;51.510;7.522;2022-08-19T11:12:44;18.65;;;13.38;;
58362;SDS011;54977;51.510;7.522;2022-08-19T11:17:49;13.82;;;12.40;;
58362;SDS011;54977;51.510;7.522;2022-08-19T11:22:54;11.23;;;10.05;;
58362;SDS011;54977;51.510;7.522;2022-08-19T11:27:56;11.35;;;10.15;;
58362;SDS011;54977;51.510;7.522;2022-08-19T11:32:59;11.13;;;9.40;;
58362;SDS011;54977;51.510;7.522;2022-08-19T11:38:02;12.20;;;9.23;;
58362;SDS011;54977;51.510;7.522;2022-08-19T11:43:04;8.75;;;7.85;;
58362;SDS011;54977;51.510;7.522;2022-08-19T11:48:07;11.63;;;10.07;;
58362;SDS011;54977;51.510;7.522;2022-08-19T11:53:09;14.27;;;9.85;;
58362;SDS011;54977;51.510;7.522;2022-08-19T11:58:11;12.45;;;9.98;;
58362;SDS011;54977;51.510;7.522;2022-08-19T12:03:15;9.23;;;7.65;;
58362;SDS011;54977;51.510;7.522;2022-08-19T12:08:18;7.75;;;6.95;;
58362;SDS011;54977;51.510;7.522;2022-08-19T12:13:20;10.10;;;8.82;;
58362;SDS011;54977;51.510;7.522;2022-08-19T12:18:23;14.15;;;11.98;;
58362;SDS011;54977;51.510;7.522;2022-08-19T12:23:25;10.25;;;9.18;;
58362;SDS011;54977;51.510;7.522;2022-08-19T12:28:27;15.55;;;11.32;;
58362;SDS011;54977;51.510;7.522;2022-08-19T12:33:31;12.65;;;9.48;;
58362;SDS011;54977;51.510;7.522;2022-08-19T12:38:33;13.73;;;11.40;;
58362;SDS011;54977;51.510;7.522;2022-08-19T12:43:35;18.35;;;13.98;;
58362;SDS011;54977;51.510;7.522;2022-08-19T12:48:39;13.98;;;12.68;;
58362;SDS011;54977;51.510;7.522;2022-08-19T12:53:42;11.00;;;9.93;;
58362;SDS011;54977;51.510;7.522;2022-08-19T12:58:45;10.82;;;9.82;;
58362;SDS011;54977;51.510;7.522;2022-08-19T13:03:48;11.70;;;10.50;;
58362;SDS011;54977;51.510;7.522;2022-08-19T13:08:52;12.70;;;9.20;;
58362;SDS011;54977;51.510;7.522;2022-08-19T13:13:54;11.38;;;9.50;;
58362;SDS011;54977;51.510;7.522;2022-08-19T13:18:58;12.82;;;9.82;;
58362;SDS011;54977;51.510;7.522;2022-08-19T13:24:03;9.52;;;8.63;;
58362;SDS011;54977;51.510;7.522;2022-08-19T13:29:05;11.32;;;8.40;;
58362;SDS011;54977;51.510;7.522;2022-08-19T13:34:30;7.78;;;6.97;;
58362;SDS011;54977;51.510;7.522;2022-08-19T13:39:34;9.70;;;8.70;;
58362;SDS011;54977;51.510;7.522;2022-08-19T13:44:36;8.43;;;7.28;;
58362;SDS011;54977;51.510;7.522;2022-08-19T13:49:39;7.13;;;6.43;;
58362;SDS011;54977;51.510;7.522;2022-08-19T13:54:41;8.68;;;6.88;;
58362;SDS011;54977;51.510;7.522;2022-08-19T13:59:43;8.13;;;6.55;;
58362;SDS011;54977;51.510;7.522;2022-08-19T14:04:47;7.35;;;6.07;;
58362;SDS011;54977;51.510;7.522;2022-08-19T14:09:49;7.05;;;6.05;;
58362;SDS011;54977;51.510;7.522;2022-08-19T14:14:51;10.45;;;5.97;;
58362;SDS011;54977;51.510;7.522;2022-08-19T14:19:57;10.43;;;5.82;;
58362;SDS011;54977;51.510;7.522;2022-08-19T14:25:00;7.10;;;6.40;;
58362;SDS011;54977;51.510;7.522;2022-08-19T14:30:03;7.30;;;6.43;;
58362;SDS011;54977;51.510;7.522;2022-08-19T14:35:08;10.98;;;7.30;;
58362;SDS011;54977;51.510;7.522;2022-08-19T14:40:13;10.25;;;6.28;;
58362;SDS011;54977;51.510;7.522;2022-08-19T14:45:15;7.72;;;6.05;;
58362;SDS011;54977;51.510;7.522;2022-08-19T14:50:19;6.97;;;5.70;;
58362;SDS011;54977;51.510;7.522;2022-08-19T14:55:21;6.18;;;5.53;;
58362;SDS011;54977;51.510;7.522;2022-08-19T15:00:23;7.88;;;5.95;;
58362;SDS011;54977;51.510;7.522;2022-08-19T15:05:26;6.30;;;5.20;;
58362;SDS011;54977;51.510;7.522;2022-08-19T15:10:28;7.38;;;4.70;;
58362;SDS011;54977;51.510;7.522;2022-08-19T15:15:31;6.07;;;4.60;;
58362;SDS011;54977;51.510;7.522;2022-08-19T15:20:34;4.43;;;3.95;;
58362;SDS011;54977;51.510;7.522;2022-08-19T15:25:36;5.60;;;4.75;;
58362;SDS011;54977;51.510;7.522;2022-08-19T15:30:38;6.38;;;4.63;;
58362;SDS011;54977;51.510;7.522;2022-08-19T15:35:43;7.40;;;4.90;;
58362;SDS011;54977;51.510;7.522;2022-08-19T15:40:45;5.95;;;4.60;;
58362;SDS011;54977;51.510;7.522;2022-08-19T15:45:48;6.88;;;4.20;;
58362;SDS011;54977;51.510;7.522;2022-08-19T15:50:51;7.78;;;4.25;;
58362;SDS011;54977;51.510;7.522;2022-08-19T15:55:53;6.32;;;4.50;;
58362;SDS011;54977;51.510;7.522;2022-08-19T16:00:55;7.65;;;4.53;;
58362;SDS011;54977;51.510;7.522;2022-08-19T16:11:29;7.47;;;4.60;;
58362;SDS011;54977;51.510;7.522;2022-08-19T16:16:34;7.10;;;4.65;;
58362;SDS011;54977;51.510;7.522;2022-08-19T16:21:38;5.53;;;4.05;;
58362;SDS011;54977;51.510;7.522;2022-08-19T16:26:40;9.15;;;5.50;;
58362;SDS011;54977;51.510;7.522;2022-08-19T16:31:43;7.60;;;5.30;;
58362;SDS011;54977;51.510;7.522;2022-08-19T16:36:47;8.05;;;5.60;;
58362;SDS011;54977;51.510;7.522;2022-08-19T16:41:49;6.20;;;5.35;;
58362;SDS011;54977;51.510;7.522;2022-08-19T16:46:51;8.27;;;5.90;;
58362;SDS011;54977;51.510;7.522;2022-08-19T16:51:55;8.82;;;6.55;;
58362;SDS011;54977;51.510;7.522;2022-08-19T16:56:57;9.57;;;6.60;;
58362;SDS011;54977;51.510;7.522;2022-08-19T17:02:00;9.15;;;8.20;;
58362;SDS011;54977;51.510;7.522;2022-08-19T17:07:03;13.82;;;8.10;;
58362;SDS011;54977;51.510;7.522;2022-08-19T17:12:05;14.00;;;8.85;;
58362;SDS011;54977;51.510;7.522;2022-08-19T17:17:07;12.38;;;8.65;;
58362;SDS011;54977;51.510;7.522;2022-08-19T17:22:13;8.60;;;7.70;;
58362;SDS011;54977;51.510;7.522;2022-08-19T17:27:15;10.93;;;8.23;;
58362;SDS011;54977;51.510;7.522;2022-08-19T17:32:18;9.80;;;6.82;;
58362;SDS011;54977;51.510;7.522;2022-08-19T17:37:22;10.40;;;7.25;;
58362;SDS011;54977;51.510;7.522;2022-08-19T17:42:23;9.40;;;6.72;;
58362;SDS011;54977;51.510;7.522;2022-08-19T17:47:26;10.77;;;7.88;;
58362;SDS011;54977;51.510;7.522;2022-08-19T17:52:30;10.90;;;7.72;;
58362;SDS011;54977;51.510;7.522;2022-08-19T17:57:32;11.88;;;8.10;;
58362;SDS011;54977;51.510;7.522;2022-08-19T18:02:42;9.73;;;8.10;;
58362;SDS011;54977;51.510;7.522;2022-08-19T18:07:46;11.97;;;9.07;;
58362;SDS011;54977;51.510;7.522;2022-08-19T18:12:51;14.95;;;8.80;;
58362;SDS011;54977;51.510;7.522;2022-08-19T18:17:54;12.82;;;9.25;;
58362;SDS011;54977;51.510;7.522;2022-08-19T18:22:58;13.68;;;9.27;;
58362;SDS011;54977;51.510;7.522;2022-08-19T18:28:00;14.25;;;9.25;;
58362;SDS011;54977;51.510;7.522;2022-08-19T18:33:03;13.52;;;9.50;;
58362;SDS011;54977;51.510;7.522;2022-08-19T18:38:10;13.88;;;9.43;;
58362;SDS011;54977;51.510;7.522;2022-08-19T18:43:31;11.95;;;9.75;;
58362;SDS011;54977;51.510;7.522;2022-08-19T18:48:50;16.73;;;10.18;;
58362;SDS011;54977;51.510;7.522;2022-08-19T18:54:06;17.10;;;10.75;;
58362;SDS011;54977;51.510;7.522;2022-08-19T18:59:08;15.15;;;9.85;;
58362;SDS011;54977;51.510;7.522;2022-08-19T19:04:10;13.75;;;10.25;;
58362;SDS011;54977;51.510;7.522;2022-08-19T19:09:14;16.95;;;9.82;;
58362;SDS011;54977;51.510;7.522;2022-08-19T19:14:19;13.65;;;10.20;;
58362;SDS011;54977;51.510;7.522;2022-08-19T19:19:22;13.23;;;8.95;;
58362;SDS011;54977;51.510;7.522;2022-08-19T19:24:27;11.68;;;9.30;;
58362;SDS011;54977;51.510;7.522;2022-08-19T19:29:32;14.25;;;9.18;;
58362;SDS011;54977;51.510;7.522;2022-08-19T19:34:36;12.75;;;8.73;;
58362;SDS011;54977;51.510;7.522;2022-08-19T19:39:40;12.50;;;9.00;;
58362;SDS011;54977;51.510;7.522;2022-08-19T19:44:42;12.57;;;8.50;;
58362;SDS011;54977;51.510;7.522;2022-08-19T19:49:47;14.32;;;10.38;;
58362;SDS011;54977;51.510;7.522;2022-08-19T19:54:52;15.30;;;10.50;;
58362;SDS011;54977;51.510;7.522;2022-08-19T19:59:55;19.08;;;12.55;;
58362;SDS011;54977;51.510;7.522;2022-08-19T20:04:57;16.20;;;11.18;;
58362;SDS011;54977;51.510;7.522;2022-08-19T20:10:02;11.80;;;9.65;;
58362;SDS011;54977;51.510;7.522;2022-08-19T20:15:04;19.95;;;14.05;;
58362;SDS011;54977;51.510;7.522;2022-08-19T20:20:07;20.15;;;13.32;;
58362;SDS011;54977;51.510;7.522;2022-08-19T20:25:12;18.60;;;14.20;;
58362;SDS011;54977;51.510;7.522;2022-08-19T20:30:15;19.20;;;12.95;;
58362;SDS011;54977;51.510;7.522;2022-08-19T20:35:20;17.05;;;13.27;;
58362;SDS011;54977;51.510;7.522;2022-08-19T20:40:24;22.77;;;13.43;;
58362;SDS011;54977;51.510;7.522;2022-08-19T20:45:26;17.75;;;13.68;;
58362;SDS011;54977;51.510;7.522;2022-08-19T20:50:28;16.63;;;12.40;;
58362;SDS011;54977;51.510;7.522;2022-08-19T20:55:32;16.77;;;12.48;;
58362;SDS011;54977;51.510;7.522;2022-08-19T21:00:34;14.13;;;10.15;;
58362;SDS011;54977;51.510;7.522;2022-08-19T21:05:36;15.40;;;10.40;;
58362;SDS011;54977;51.510;7.522;2022-08-19T21:10:39;16.27;;;10.52;;
58362;SDS011;54977;51.510;7.522;2022-08-19T21:15:41;15.45;;;10.43;;
58362;SDS011;54977;51.510;7.522;2022-08-19T21:20:44;15.75;;;9.95;;
58362;SDS011;54977;51.510;7.522;2022-08-19T21:25:49;15.13;;;9.88;;
58362;SDS011;54977;51.510;7.522;2022-08-19T21:30:52;16.98;;;10.63;;
58362;SDS011;54977;51.510;7.522;2022-08-19T21:35:55;13.98;;;9.88;;
58362;SDS011;54977;51.510;7.522;2022-08-19T21:40:59;15.23;;;10.13;;
58362;SDS011;54977;51.510;7.522;2022-08-19T21:46:02;15.43;;;10.35;;
58362;SDS011;54977;51.510;7.522;2022-08-19T21:51:04;15.02;;;10.80;;
58362;SDS011;54977;51.510;7.522;2022-08-19T21:56:08;14.40;;;10.20;;
58362;SDS011;54977;51.510;7.522;2022-08-19T22:01:10;14.98;;;10.43;;
58362;SDS011;54977;51.510;7.522;2022-08-19T22:06:12;14.95;;;10.13;;
58362;SDS011;54977;51.510;7.522;2022-08-19T22:11:16;15.10;;;11.00;;
58362;SDS011;54977;51.510;7.522;2022-08-19T22:16:18;15.63;;;11.00;;
58362;SDS011;54977;51.510;7.522;2022-08-19T22:21:21;13.73;;;10.25;;
58362;SDS011;54977;51.510;7.522;2022-08-19T22:26:24;13.70;;;10.68;;
58362;SDS011;54977;51.510;7.522;2022-08-19T22:31:26;15.07;;;10.30;;
58362;SDS011;54977;51.510;7.522;2022-08-19T22:36:28;14.77;;;10.35;;
58362;SDS011;54977;51.510;7.522;2022-08-19T22:41:32;14.45;;;10.55;;
58362;SDS011;54977;51.510;7.522;2022-08-19T22:46:33;13.98;;;10.38;;
58362;SDS011;54977;51.510;7.522;2022-08-19T22:51:35;14.32;;;9.88;;
58362;SDS011;54977;51.510;7.522;2022-08-19T22:56:56;13.10;;;9.93;;
58362;SDS011;54977;51.510;7.522;2022-08-19T23:01:59;11.93;;;9.27;;
58362;SDS011;54977;51.510;7.522;2022-08-19T23:07:01;12.48;;;9.73;;
58362;SDS011;54977;51.510;7.522;2022-08-19T23:12:05;16.83;;;10.23;;
58362;SDS011;54977;51.510;7.522;2022-08-19T23:17:08;15.27;;;10.43;;
58362;SDS011;54977;51.510;7.522;2022-08-19T23:22:11;17.00;;;10.25;;
58362;SDS011;54977;51.510;7.522;2022-08-19T23:27:17;16.13;;;11.98;;
58362;SDS011;54977;51.510;7.522;2022-08-19T23:32:36;16.10;;;10.43;;
58362;SDS011;54977;51.510;7.522;2022-08-19T23:37:38;16.92;;;10.82;;
58362;SDS011;54977;51.510;7.522;2022-08-19T23:42:42;17.50;;;10.75;;
58362;SDS011;54977;51.510;7.522;2022-08-19T23:47:45;16.70;;;10.27;;
58362;SDS011;54977;51.510;7.522;2022-08-19T23:52:48;15.60;;;11.27;;
58362;SDS011;54977;51.510;7.522;2022-08-19T23:57:52;15.75;;;10.65;;
